FR-0039 weather

Centre Hospitalier Heliport
Semur-En-Auxois, Burgundy, France

Public forecast

Using degrees Celsius for public forecast. Weather courtesy of forecast.io.

METAR (pilot weather report)

Closest report is Dijon-Bourgogne Airport, 33.2 nm (61.5 km) ESE. Retrieved 2019/07/21 23:30 UTC (0 seconds ago):

LFSD 212330Z AUTO 36007KT CAVOK 22/12 Q1023

TAF (pilot weather forecast)

Forecast is more than 12 hours old.

Closest forecast is Dijon-Bourgogne Airport, 33.2 nm (61.5 km) ESE. Retrieved 2015/06/01 00:11 UTC (4 years ago):

TAF LFSD 010600Z 0100/0124 CNL